createdAt,value
2023-02-20T00:01:55.597Z,3.65
2023-02-20T00:04:39.314Z,4.45
2023-02-20T00:07:16.894Z,17.42
2023-02-20T00:09:47.586Z,3.55
2023-02-20T00:12:25.044Z,2.70
2023-02-20T00:15:11.772Z,4.10
2023-02-20T00:17:49.356Z,1.63
2023-02-20T00:20:25.980Z,2.30
2023-02-20T00:22:56.576Z,2.38
2023-02-20T00:25:36.862Z,2.28
2023-02-20T00:28:15.288Z,2.58
2023-02-20T00:30:52.992Z,3.50
2023-02-20T00:33:24.922Z,3.20
2023-02-20T00:35:55.676Z,3.33
2023-02-20T00:38:32.014Z,5.65
2023-02-20T00:41:09.116Z,2.38
2023-02-20T00:43:52.428Z,2.03
2023-02-20T00:46:35.651Z,2.28
2023-02-20T00:49:09.515Z,4.67
2023-02-20T00:51:50.386Z,4.45
2023-02-20T00:54:31.276Z,3.40
2023-02-20T00:57:00.585Z,2.20
2023-02-20T00:59:31.482Z,2.13
2023-02-20T01:02:02.674Z,2.65
2023-02-20T01:04:34.728Z,2.00
2023-02-20T01:07:07.082Z,2.13
2023-02-20T01:09:39.327Z,1.88
2023-02-20T01:12:13.018Z,2.55
2023-02-20T01:14:55.739Z,2.30
2023-02-20T01:17:24.649Z,2.00
2023-02-20T01:19:59.020Z,2.10
2023-02-20T01:22:30.947Z,1.70
2023-02-20T01:25:08.489Z,2.70
2023-02-20T01:27:42.262Z,3.67
2023-02-20T01:30:41.225Z,2.75
2023-02-20T01:33:22.783Z,4.30
2023-02-20T01:35:55.446Z,4.15
2023-02-20T01:38:43.258Z,3.42
2023-02-20T01:41:17.356Z,2.92
2023-02-20T01:43:47.193Z,5.25
2023-02-20T01:46:34.678Z,4.40
2023-02-20T01:49:20.396Z,6.03
2023-02-20T01:52:23.282Z,2.33
2023-02-20T01:55:26.603Z,1.75
2023-02-20T01:58:23.782Z,2.03
2023-02-20T02:00:56.854Z,1.98
2023-02-20T02:03:35.128Z,3.65
2023-02-20T02:06:07.918Z,8.90
2023-02-20T02:08:43.834Z,3.15
2023-02-20T02:11:25.466Z,2.13
2023-02-20T02:13:59.685Z,2.80
2023-02-20T02:16:59.788Z,1.50
2023-02-20T02:20:29.728Z,2.38
2023-02-20T02:23:20.696Z,1.30
2023-02-20T02:26:11.917Z,2.25
2023-02-20T02:29:23.210Z,2.78
2023-02-20T02:32:12.223Z,3.00
2023-02-20T02:35:02.398Z,1.77
2023-02-20T02:38:20.368Z,2.50
2023-02-20T02:41:25.176Z,2.53
2023-02-20T02:44:43.331Z,1.98
2023-02-20T02:50:11.134Z,10.00
2023-02-20T02:52:54.946Z,2.65
2023-02-20T02:55:36.582Z,3.20
2023-02-20T02:58:06.122Z,7.13
2023-02-20T03:01:08.988Z,4.38
2023-02-20T03:03:57.686Z,7.65
2023-02-20T03:06:40.602Z,3.40
2023-02-20T03:09:19.127Z,3.53
2023-02-20T03:11:51.400Z,18.20
2023-02-20T03:15:25.626Z,4.25
2023-02-20T03:18:42.796Z,4.75
2023-02-20T03:21:21.416Z,2.63
2023-02-20T03:24:07.952Z,3.40
2023-02-20T03:26:39.581Z,2.40
2023-02-20T03:29:27.756Z,2.83
2023-02-20T03:32:43.128Z,2.70
2023-02-20T03:35:39.166Z,3.80
2023-02-20T03:38:31.188Z,3.70
2023-02-20T03:41:37.237Z,2.63
2023-02-20T03:44:16.277Z,2.35
2023-02-20T03:46:48.786Z,2.60
2023-02-20T03:49:39.062Z,2.10
2023-02-20T03:52:21.237Z,2.35
2023-02-20T03:54:52.815Z,3.40
2023-02-20T03:57:43.848Z,10.75
2023-02-20T04:00:34.912Z,8.90
2023-02-20T04:03:21.932Z,5.20
2023-02-20T04:05:59.704Z,11.32
2023-02-20T04:08:59.897Z,2.70
2023-02-20T04:11:48.449Z,17.02
2023-02-20T04:14:26.633Z,3.97
2023-02-20T04:19:51.871Z,3.65
2023-02-20T04:22:51.479Z,4.63
2023-02-20T04:26:04.706Z,4.50
2023-02-20T04:28:47.928Z,3.15
2023-02-20T04:31:21.093Z,2.95
2023-02-20T04:34:04.544Z,3.10
2023-02-20T04:36:38.405Z,3.60
2023-02-20T04:39:08.443Z,6.90
2023-02-20T04:41:37.919Z,10.18
2023-02-20T04:44:28.292Z,6.07
2023-02-20T04:47:08.914Z,4.60
2023-02-20T04:49:50.296Z,2.42
2023-02-20T04:52:25.824Z,2.75
2023-02-20T04:55:04.970Z,3.88
2023-02-20T04:57:39.374Z,3.15
2023-02-20T05:00:16.492Z,4.40
2023-02-20T05:03:09.515Z,4.97
2023-02-20T05:06:03.032Z,3.97
2023-02-20T05:08:40.699Z,7.00
2023-02-20T05:11:15.446Z,3.55
2023-02-20T05:13:48.382Z,2.80
2023-02-20T05:16:17.630Z,3.53
2023-02-20T05:18:54.439Z,6.80
2023-02-20T05:21:44.473Z,4.68
2023-02-20T05:24:21.367Z,3.90
2023-02-20T05:26:53.719Z,3.42
2023-02-20T05:29:30.715Z,19.25
2023-02-20T05:32:02.063Z,14.63
2023-02-20T05:34:37.965Z,30.30
2023-02-20T05:37:11.791Z,24.30
2023-02-20T05:40:03.164Z,11.43
2023-02-20T05:42:37.672Z,17.90
2023-02-20T05:45:22.033Z,7.22
2023-02-20T05:47:58.951Z,7.40
2023-02-20T05:50:30.402Z,4.68
2023-02-20T05:53:00.333Z,7.88
2023-02-20T05:55:32.096Z,3.50
2023-02-20T05:58:01.120Z,4.68
2023-02-20T06:00:36.716Z,3.70
2023-02-20T06:03:11.738Z,4.15
2023-02-20T06:05:41.371Z,3.15
2023-02-20T06:08:17.707Z,3.40
2023-02-20T06:10:50.592Z,3.53
2023-02-20T06:13:27.607Z,4.47
2023-02-20T06:15:57.607Z,4.20
2023-02-20T06:18:32.292Z,3.90
2023-02-20T06:21:22.133Z,3.67
2023-02-20T06:23:56.587Z,3.50
2023-02-20T06:26:26.166Z,4.70
2023-02-20T06:28:57.992Z,3.72
2023-02-20T06:31:29.334Z,6.20
2023-02-20T06:34:12.114Z,5.13
2023-02-20T06:36:43.046Z,11.98
2023-02-20T06:39:16.366Z,15.13
2023-02-20T06:41:47.012Z,6.05
2023-02-20T06:52:09.488Z,4.80
2023-02-20T06:54:50.839Z,5.30
2023-02-20T06:57:33.742Z,4.32
2023-02-20T07:03:00.029Z,7.93
2023-02-20T07:05:36.226Z,10.45
2023-02-20T07:08:06.420Z,25.58
2023-02-20T07:10:39.468Z,16.58
2023-02-20T07:13:07.508Z,12.95
2023-02-20T07:15:42.017Z,11.77
2023-02-20T07:18:18.506Z,8.95
2023-02-20T07:21:08.797Z,8.98
2023-02-20T07:23:38.014Z,16.95
2023-02-20T07:26:09.473Z,20.83
2023-02-20T07:28:39.240Z,18.42
2023-02-20T07:31:12.236Z,18.20
2023-02-20T07:33:46.442Z,11.20
2023-02-20T07:36:22.599Z,14.23
2023-02-20T07:39:06.867Z,30.60
2023-02-20T07:41:42.832Z,19.40
2023-02-20T07:44:45.247Z,9.98
2023-02-20T07:47:18.744Z,9.02
2023-02-20T07:49:50.103Z,14.55
2023-02-20T07:52:25.633Z,9.23
2023-02-20T07:55:00.603Z,25.40
2023-02-20T07:57:38.812Z,14.38
2023-02-20T08:00:28.252Z,10.60
2023-02-20T08:03:02.720Z,9.05
2023-02-20T08:05:48.052Z,8.63
2023-02-20T08:08:19.584Z,7.78
2023-02-20T08:10:50.517Z,9.35
2023-02-20T08:13:41.342Z,8.47
2023-02-20T08:16:12.950Z,11.10
2023-02-20T08:18:51.632Z,11.27
2023-02-20T08:21:27.333Z,9.85
2023-02-20T08:24:07.469Z,10.85
2023-02-20T08:26:37.128Z,32.42
2023-02-20T08:29:07.744Z,21.40
2023-02-20T08:31:37.549Z,13.88
2023-02-20T08:34:09.465Z,12.70
2023-02-20T08:36:42.111Z,9.45
2023-02-20T08:39:21.445Z,11.30
2023-02-20T08:41:58.962Z,9.70
2023-02-20T08:44:30.498Z,9.93
2023-02-20T08:46:59.725Z,10.02
2023-02-20T08:49:49.388Z,10.50
2023-02-20T08:52:23.165Z,18.25
2023-02-20T08:55:01.950Z,8.75
2023-02-20T08:58:00.527Z,9.38
2023-02-20T09:00:37.133Z,9.50
2023-02-20T09:03:16.970Z,11.48
2023-02-20T09:05:53.827Z,13.60
2023-02-20T09:08:24.860Z,13.50
2023-02-20T09:10:57.558Z,11.18
2023-02-20T09:13:25.802Z,12.70
2023-02-20T09:15:58.768Z,12.45
2023-02-20T09:18:27.902Z,29.70
2023-02-20T09:21:02.784Z,14.82
2023-02-20T09:23:38.380Z,14.75
2023-02-20T09:26:12.093Z,11.70
2023-02-20T09:28:50.945Z,13.07
2023-02-20T09:31:25.083Z,11.07
2023-02-20T09:34:21.258Z,11.27
2023-02-20T09:37:06.398Z,12.45
2023-02-20T09:39:44.933Z,13.15
2023-02-20T09:42:47.850Z,11.20
2023-02-20T09:45:25.453Z,11.25
2023-02-20T09:48:31.894Z,12.70
2023-02-20T09:52:02.151Z,10.40
2023-02-20T09:57:31.998Z,11.85
2023-02-20T10:00:11.786Z,14.73
2023-02-20T10:02:48.208Z,18.23
2023-02-20T10:05:23.513Z,12.57
2023-02-20T10:07:59.876Z,14.80
2023-02-20T10:11:01.244Z,14.18
2023-02-20T10:14:14.830Z,11.68
2023-02-20T10:17:18.918Z,9.68
2023-02-20T10:20:38.362Z,9.57
2023-02-20T10:24:03.738Z,9.32
2023-02-20T10:26:40.544Z,9.80
2023-02-20T10:29:25.468Z,10.70
2023-02-20T10:32:10.525Z,12.48
2023-02-20T10:34:51.306Z,10.63
2023-02-20T10:37:48.468Z,12.05
2023-02-20T10:40:35.806Z,10.13
2023-02-20T10:43:28.975Z,11.00
2023-02-20T10:46:12.716Z,10.30
2023-02-20T10:48:46.650Z,10.68
2023-02-20T10:52:11.098Z,12.73
2023-02-20T11:00:09.384Z,16.02
2023-02-20T11:02:46.338Z,15.20
2023-02-20T11:05:24.346Z,18.90
2023-02-20T11:07:54.755Z,14.82
2023-02-20T11:10:28.418Z,14.23
2023-02-20T11:13:03.174Z,13.77
2023-02-20T11:15:35.107Z,14.93
2023-02-20T11:18:26.659Z,14.77
2023-02-20T11:20:56.735Z,15.73
2023-02-20T11:23:58.315Z,13.07
2023-02-20T11:26:33.424Z,20.92
2023-02-20T11:29:08.843Z,23.75
2023-02-20T11:31:40.823Z,17.70
2023-02-20T11:34:23.828Z,16.85
2023-02-20T11:37:05.181Z,14.95
2023-02-20T11:39:34.615Z,13.90
2023-02-20T11:42:21.055Z,17.75
2023-02-20T11:45:16.513Z,16.33
2023-02-20T11:48:14.511Z,18.58
2023-02-20T11:51:01.637Z,20.95
2023-02-20T11:53:44.689Z,16.98
2023-02-20T11:56:17.854Z,17.63
2023-02-20T11:58:48.500Z,15.73
2023-02-20T12:01:36.082Z,13.30
2023-02-20T12:04:30.265Z,12.88
2023-02-20T12:07:27.955Z,13.57
2023-02-20T12:10:20.051Z,12.98
2023-02-20T12:12:51.019Z,13.98
2023-02-20T12:15:26.101Z,13.10
2023-02-20T12:18:04.679Z,14.13
2023-02-20T12:20:44.644Z,13.85
2023-02-20T12:23:21.194Z,12.48
2023-02-20T12:26:15.174Z,13.25
2023-02-20T12:29:04.628Z,13.73
2023-02-20T12:31:56.011Z,13.23
2023-02-20T12:34:42.118Z,14.15
2023-02-20T12:37:31.079Z,12.77
2023-02-20T12:40:09.096Z,13.60
2023-02-20T12:43:02.449Z,15.32
2023-02-20T12:45:50.653Z,12.88
2023-02-20T12:48:54.503Z,13.85
2023-02-20T12:51:43.930Z,13.57
2023-02-20T12:54:29.629Z,13.85
2023-02-20T12:57:30.104Z,14.88
2023-02-20T13:00:13.597Z,14.10
2023-02-20T13:02:51.350Z,15.23
2023-02-20T13:05:27.466Z,14.05
2023-02-20T13:08:01.612Z,12.75
2023-02-20T13:10:40.989Z,15.88
2023-02-20T13:13:11.617Z,14.20
2023-02-20T13:16:14.169Z,13.88
2023-02-20T13:19:06.902Z,12.77
2023-02-20T13:21:37.462Z,12.73
2023-02-20T13:24:24.863Z,13.43
2023-02-20T13:27:33.113Z,13.65
2023-02-20T13:30:21.067Z,13.10
2023-02-20T13:33:21.176Z,16.27
2023-02-20T13:35:57.839Z,13.10
2023-02-20T13:41:11.858Z,15.02
2023-02-20T13:43:51.753Z,13.23
2023-02-20T13:46:26.359Z,13.82
2023-02-20T13:48:56.354Z,15.00
2023-02-20T13:51:26.774Z,19.85
2023-02-20T13:54:18.488Z,14.23
2023-02-20T13:59:55.920Z,14.60
2023-02-20T14:02:36.223Z,14.45
2023-02-20T14:05:32.378Z,19.52
2023-02-20T14:08:02.485Z,30.58
2023-02-20T14:10:36.254Z,17.52
2023-02-20T14:13:08.977Z,12.95
2023-02-20T14:15:57.946Z,13.25
2023-02-20T14:18:35.196Z,20.05
2023-02-20T14:21:19.455Z,15.18
2023-02-20T14:23:53.126Z,16.95
2023-02-20T14:26:56.247Z,16.77
2023-02-20T14:29:37.067Z,13.82
2023-02-20T14:32:14.476Z,13.90
2023-02-20T14:34:49.639Z,13.75
2023-02-20T14:37:39.689Z,12.20
2023-02-20T14:40:37.206Z,13.27
2023-02-20T14:43:33.265Z,14.80
2023-02-20T14:46:05.891Z,10.93
2023-02-20T14:48:38.980Z,11.73
2023-02-20T14:51:30.633Z,17.67
2023-02-20T14:54:23.434Z,16.50
2023-02-20T14:57:01.221Z,14.55
2023-02-20T15:00:15.352Z,17.30
2023-02-20T15:02:48.390Z,13.07
2023-02-20T15:05:26.202Z,16.30
2023-02-20T15:08:01.914Z,21.52
2023-02-20T15:10:49.260Z,13.10
2023-02-20T15:13:37.651Z,16.38
2023-02-20T15:16:23.214Z,16.05
2023-02-20T15:18:52.417Z,16.25
2023-02-20T15:21:36.282Z,15.90
2023-02-20T15:24:36.890Z,17.95
2023-02-20T15:27:13.813Z,15.93
2023-02-20T15:29:47.174Z,14.90
2023-02-20T15:32:41.169Z,14.93
2023-02-20T15:35:19.174Z,17.17
2023-02-20T15:37:50.222Z,14.40
2023-02-20T15:40:27.447Z,14.70
2023-02-20T15:43:04.667Z,16.20
2023-02-20T15:45:44.034Z,14.07
2023-02-20T15:48:21.827Z,15.20
2023-02-20T15:50:50.583Z,13.43
2023-02-20T15:53:33.680Z,13.63
2023-02-20T15:56:12.769Z,14.13
2023-02-20T15:58:44.339Z,15.05
2023-02-20T16:01:16.135Z,17.88
2023-02-20T16:03:53.045Z,14.23
2023-02-20T16:06:30.808Z,13.38
2023-02-20T16:09:04.371Z,14.32
2023-02-20T16:11:46.121Z,15.30
2023-02-20T16:14:16.859Z,14.00
2023-02-20T16:16:51.766Z,14.85
2023-02-20T16:19:36.683Z,17.42
2023-02-20T16:22:17.341Z,22.60
2023-02-20T16:24:55.399Z,21.93
2023-02-20T16:27:31.444Z,19.65
2023-02-20T16:30:20.951Z,14.75
2023-02-20T16:33:00.275Z,18.08
2023-02-20T16:35:30.155Z,9.55
2023-02-20T16:38:02.044Z,10.38
2023-02-20T16:40:32.568Z,9.35
2023-02-20T16:43:16.802Z,11.43
2023-02-20T16:45:55.025Z,8.88
2023-02-20T16:48:24.677Z,13.73
2023-02-20T16:51:00.214Z,16.45
2023-02-20T16:53:40.745Z,8.63
2023-02-20T16:56:12.423Z,6.45
2023-02-20T16:59:01.337Z,8.43
2023-02-20T17:01:30.673Z,10.30
2023-02-20T17:07:09.130Z,10.23
2023-02-20T17:09:44.312Z,8.27
2023-02-20T17:12:26.344Z,10.13
2023-02-20T17:15:02.840Z,8.30
2023-02-20T17:17:34.651Z,20.40
2023-02-20T17:20:15.652Z,9.20
2023-02-20T17:22:52.895Z,12.73
2023-02-20T17:28:27.574Z,9.55
2023-02-20T17:31:01.063Z,17.02
2023-02-20T17:33:43.197Z,9.60
2023-02-20T17:36:13.044Z,9.35
2023-02-20T17:38:46.035Z,15.18
2023-02-20T17:41:21.757Z,16.15
2023-02-20T17:43:52.842Z,19.42
2023-02-20T17:46:21.565Z,17.40
2023-02-20T17:49:05.037Z,25.00
2023-02-20T17:55:04.651Z,13.52
2023-02-20T17:57:34.342Z,35.25
2023-02-20T18:00:16.544Z,29.33
2023-02-20T18:02:45.162Z,18.25
2023-02-20T18:05:14.835Z,8.30
2023-02-20T18:07:43.800Z,9.75
2023-02-20T18:10:20.870Z,22.40
2023-02-20T18:13:05.551Z,44.55
2023-02-20T18:15:42.738Z,16.65
2023-02-20T18:18:14.623Z,19.58
2023-02-20T18:20:43.354Z,12.35
2023-02-20T18:23:14.864Z,11.35
2023-02-20T18:28:26.189Z,8.65
2023-02-20T18:31:00.823Z,10.98
2023-02-20T18:33:29.380Z,19.52
2023-02-20T18:36:07.863Z,14.20
2023-02-20T18:38:37.563Z,15.55
2023-02-20T18:41:15.554Z,14.98
2023-02-20T18:43:55.557Z,8.13
2023-02-20T18:46:40.131Z,8.73
2023-02-20T18:49:13.253Z,7.90
2023-02-20T18:51:45.284Z,6.38
2023-02-20T18:54:31.422Z,5.72
2023-02-20T18:57:16.795Z,4.20
2023-02-20T18:59:47.113Z,4.60
2023-02-20T19:02:27.749Z,3.58
2023-02-20T19:04:59.408Z,4.45
2023-02-20T19:07:37.115Z,12.00
2023-02-20T19:10:35.955Z,9.98
2023-02-20T19:13:09.908Z,10.63
2023-02-20T19:15:40.516Z,5.65
2023-02-20T19:18:13.991Z,8.93
2023-02-20T19:20:48.027Z,8.88
2023-02-20T19:23:24.127Z,6.20
2023-02-20T19:25:54.761Z,3.22
2023-02-20T19:28:32.256Z,5.35
2023-02-20T19:31:08.055Z,11.75
2023-02-20T19:33:39.835Z,10.75
2023-02-20T19:36:22.564Z,12.57
2023-02-20T19:43:11.770Z,4.38
2023-02-20T19:45:51.101Z,2.80
2023-02-20T19:48:21.395Z,2.53
2023-02-20T19:50:55.812Z,3.50
2023-02-20T19:56:24.720Z,1.90
2023-02-20T19:59:01.451Z,2.65
2023-02-20T20:01:33.546Z,3.40
2023-02-20T20:04:07.679Z,2.08
2023-02-20T20:06:46.794Z,2.22
2023-02-20T20:09:33.778Z,1.90
2023-02-20T20:12:26.422Z,2.45
2023-02-20T20:15:10.299Z,1.60
2023-02-20T20:17:41.155Z,1.92
2023-02-20T20:20:11.921Z,2.22
2023-02-20T20:22:42.657Z,1.77
2023-02-20T20:25:12.622Z,2.17
2023-02-20T20:27:43.913Z,3.25
2023-02-20T20:30:23.116Z,3.15
2023-02-20T20:33:04.133Z,2.55
2023-02-20T20:35:35.012Z,4.95
2023-02-20T20:38:04.658Z,7.93
2023-02-20T20:43:32.559Z,7.03
2023-02-20T20:46:01.683Z,4.28
2023-02-20T20:48:32.842Z,10.40
2023-02-20T20:51:06.723Z,6.78
2023-02-20T20:53:54.958Z,3.97
2023-02-20T20:56:24.247Z,3.92
2023-02-20T20:58:58.946Z,3.72
2023-02-20T21:01:28.401Z,2.75
2023-02-20T21:03:59.280Z,2.90
2023-02-20T21:06:31.714Z,3.75
2023-02-20T21:09:20.292Z,3.28
2023-02-20T21:11:49.983Z,2.60
2023-02-20T21:14:20.075Z,2.63
2023-02-20T21:16:52.541Z,2.45
2023-02-20T21:19:23.578Z,1.73
2023-02-20T21:21:53.922Z,2.08
2023-02-20T21:24:23.115Z,1.88
2023-02-20T21:29:45.756Z,2.10
2023-02-20T21:32:23.043Z,2.10
2023-02-20T21:34:57.202Z,2.70
2023-02-20T21:37:49.438Z,3.13
2023-02-20T21:40:19.787Z,2.22
2023-02-20T21:43:09.618Z,3.33
2023-02-20T21:45:56.442Z,2.53
2023-02-20T21:48:30.319Z,3.40
2023-02-20T21:51:00.664Z,3.95
2023-02-20T21:53:28.865Z,3.30
2023-02-20T21:55:58.790Z,2.50
2023-02-20T21:58:47.947Z,2.95
2023-02-20T22:01:18.193Z,2.40
2023-02-20T22:03:46.683Z,2.72
2023-02-20T22:06:15.195Z,2.30
2023-02-20T22:09:04.360Z,2.50
2023-02-20T22:12:00.635Z,3.03
2023-02-20T22:14:54.025Z,2.60
2023-02-20T22:17:41.431Z,2.22
2023-02-20T22:20:31.019Z,2.58
2023-02-20T22:23:19.618Z,2.78
2023-02-20T22:26:08.869Z,2.58
2023-02-20T22:29:06.047Z,2.67
2023-02-20T22:31:54.420Z,2.63
2023-02-20T22:34:56.744Z,2.30
2023-02-20T22:37:49.289Z,2.33
2023-02-20T22:40:36.540Z,3.00
2023-02-20T22:43:23.316Z,2.28
2023-02-20T22:46:11.876Z,2.50
2023-02-20T22:48:58.567Z,2.60
2023-02-20T22:51:46.781Z,2.58
2023-02-20T22:54:36.511Z,2.70
2023-02-20T22:57:23.545Z,3.95
2023-02-20T23:00:11.857Z,6.60
2023-02-20T23:03:08.668Z,2.90
2023-02-20T23:05:56.111Z,2.70
2023-02-20T23:08:53.534Z,2.58
2023-02-20T23:11:40.233Z,2.97
2023-02-20T23:14:28.307Z,3.17
2023-02-20T23:17:29.315Z,3.92
2023-02-20T23:20:36.873Z,2.33
2023-02-20T23:23:24.298Z,11.15
2023-02-20T23:26:13.740Z,3.50
2023-02-20T23:29:00.911Z,2.50
2023-02-20T23:32:14.816Z,3.50
2023-02-20T23:35:02.403Z,2.83
2023-02-20T23:37:53.256Z,3.58
2023-02-20T23:40:42.112Z,2.67
2023-02-20T23:43:31.690Z,2.70
2023-02-20T23:46:18.490Z,2.15
2023-02-20T23:49:05.687Z,2.30
2023-02-20T23:52:02.748Z,2.60
2023-02-20T23:55:00.734Z,2.25
2023-02-20T23:57:47.995Z,3.45
